Time;durP1;ratioP1;P1;durP2;ratioP2;P2;SDS_P1;SDS_P2;PMS_P1;PMS_P2;Temp;Humidity;BMP_temperature;BMP_pressure;BME280_temperature;BME280_humidity;BME280_pressure;Samples;Min_cycle;Max_cycle;Signal;HPM_P1;HPM_P2
2023/10/19 00:01:40;;;;;;;11.73;9.50;;;17.40;99.90;;;;;;1947482;74;20108;-88
2023/10/19 00:04:34;;;;;;;12.15;9.40;;;17.40;99.90;;;;;;1947431;74;21125;-89
2023/10/19 00:07:25;;;;;;;12.10;9.25;;;17.40;99.90;;;;;;1947453;74;21098;-89
2023/10/19 00:10:17;;;;;;;11.65;9.18;;;17.40;99.90;;;;;;1947313;74;21059;-88
2023/10/19 00:13:11;;;;;;;11.00;9.60;;;17.30;99.90;;;;;;1947388;74;21152;-89
2023/10/19 00:16:11;;;;;;;13.00;9.60;;;17.30;99.90;;;;;;1947402;73;21105;-89
2023/10/19 00:18:59;;;;;;;12.68;9.83;;;17.20;99.90;;;;;;1947381;74;21095;-89
2023/10/19 00:21:51;;;;;;;12.35;10.13;;;17.30;99.90;;;;;;1947518;74;21575;-89
2023/10/19 00:24:44;;;;;;;12.75;10.08;;;17.30;99.90;;;;;;1947631;74;21087;-88
2023/10/19 00:27:35;;;;;;;10.88;9.25;;;17.20;99.90;;;;;;1947439;74;21197;-89
2023/10/19 00:30:31;;;;;;;18.52;9.65;;;17.20;99.90;;;;;;1947434;74;21111;-89
2023/10/19 00:33:21;;;;;;;11.03;9.93;;;17.30;99.90;;;;;;1947211;74;21150;-88
2023/10/19 00:36:13;;;;;;;13.65;10.20;;;17.20;99.90;;;;;;1947096;74;21087;-88
2023/10/19 00:39:14;;;;;;;11.30;9.28;;;17.20;99.90;;;;;;1947311;74;21199;-87
2023/10/19 00:42:02;;;;;;;12.25;9.45;;;17.20;99.90;;;;;;1947101;74;21098;-88
2023/10/19 00:45:01;;;;;;;13.83;9.93;;;17.20;99.90;;;;;;1946958;74;21123;-88
2023/10/19 00:47:49;;;;;;;10.30;9.08;;;17.20;99.90;;;;;;1947351;74;21063;-88
2023/10/19 00:50:41;;;;;;;10.00;8.68;;;17.10;99.90;;;;;;1946963;74;21113;-88
2023/10/19 00:53:32;;;;;;;9.23;7.55;;;17.10;99.90;;;;;;1947076;74;21063;-88
2023/10/19 00:56:27;;;;;;;10.30;7.62;;;17.10;99.90;;;;;;1946633;74;21114;-88
2023/10/19 00:59:23;;;;;;;9.48;7.65;;;17.10;99.90;;;;;;1946756;74;21102;-88
2023/10/19 01:02:19;;;;;;;10.03;7.70;;;17.20;99.90;;;;;;1947362;74;21565;-88
2023/10/19 01:05:13;;;;;;;9.35;7.45;;;17.20;99.90;;;;;;1947099;74;21086;-88
2023/10/19 01:08:19;;;;;;;10.32;6.90;;;17.20;99.90;;;;;;1947259;74;21131;-89
2023/10/19 01:11:04;;;;;;;9.93;7.72;;;17.20;99.90;;;;;;1947125;74;21103;-88
2023/10/19 01:13:55;;;;;;;9.93;6.90;;;17.20;99.90;;;;;;1947099;74;21640;-89
2023/10/19 01:16:48;;;;;;;8.28;6.53;;;17.20;99.90;;;;;;1949982;73;21111;-90
2023/10/19 01:19:40;;;;;;;9.10;7.72;;;17.20;99.90;;;;;;1951513;73;21185;-89
2023/10/19 01:22:32;;;;;;;13.18;7.80;;;17.20;99.90;;;;;;1951654;73;21083;-89
2023/10/19 01:25:34;;;;;;;10.65;7.80;;;17.20;99.90;;;;;;1951572;73;21101;-89
2023/10/19 01:28:19;;;;;;;12.82;8.50;;;17.30;99.90;;;;;;1951856;73;21085;-88
2023/10/19 01:31:16;;;;;;;12.47;8.60;;;17.20;99.90;;;;;;1951500;73;21562;-88
2023/10/19 01:34:09;;;;;;;11.60;8.70;;;17.20;99.90;;;;;;1951796;73;21366;-89
2023/10/19 01:37:03;;;;;;;11.35;8.78;;;17.10;99.90;;;;;;1951272;73;21193;-88
2023/10/19 01:39:55;;;;;;;10.13;8.65;;;17.10;99.90;;;;;;1951510;73;21063;-88
2023/10/19 01:42:46;;;;;;;12.03;9.33;;;17.10;99.90;;;;;;1951225;73;21135;-90
2023/10/19 01:45:38;;;;;;;12.45;8.60;;;17.10;99.90;;;;;;1951378;73;21192;-89
2023/10/19 01:48:33;;;;;;;11.03;8.50;;;17.10;99.90;;;;;;1950931;73;21164;-88
2023/10/19 01:51:26;;;;;;;11.05;8.75;;;17.10;99.90;;;;;;1951370;73;21102;-88
2023/10/19 01:54:22;;;;;;;11.73;9.00;;;17.00;99.90;;;;;;1951514;73;21091;-89
2023/10/19 01:57:12;;;;;;;13.28;9.20;;;17.00;99.90;;;;;;1951301;73;21502;-88
2023/10/19 02:00:10;;;;;;;13.55;9.30;;;17.00;99.90;;;;;;1951459;73;21200;-89
2023/10/19 02:03:00;;;;;;;11.90;9.13;;;17.00;99.90;;;;;;1951630;73;21135;-88
2023/10/19 02:05:59;;;;;;;10.30;9.10;;;17.10;99.90;;;;;;1951641;73;21589;-89
2023/10/19 02:08:56;;;;;;;12.43;9.58;;;17.00;99.90;;;;;;1951572;73;21328;-89
2023/10/19 02:11:47;;;;;;;12.18;9.43;;;17.10;99.90;;;;;;1951738;73;21224;-89
2023/10/19 02:14:40;;;;;;;14.75;10.00;;;17.10;99.90;;;;;;1951576;73;21098;-89
2023/10/19 02:17:31;;;;;;;13.13;10.23;;;17.10;99.90;;;;;;1951380;73;21664;-89
2023/10/19 02:20:24;;;;;;;14.53;10.48;;;17.10;99.90;;;;;;1951401;73;21120;-90
2023/10/19 02:23:17;;;;;;;12.73;9.33;;;17.00;99.90;;;;;;1951600;73;21067;-89
2023/10/19 02:26:12;;;;;;;13.20;9.90;;;17.00;99.90;;;;;;1951493;73;21086;-89
2023/10/19 02:29:07;;;;;;;14.45;10.35;;;17.00;99.90;;;;;;1951538;73;21114;-89
2023/10/19 02:31:57;;;;;;;14.05;9.85;;;16.90;99.90;;;;;;1951543;73;21059;-89
2023/10/19 02:34:49;;;;;;;11.30;9.15;;;16.90;99.90;;;;;;1951371;73;21122;-87
2023/10/19 02:37:40;;;;;;;10.20;8.50;;;16.90;99.90;;;;;;1951270;73;21175;-88
2023/10/19 02:40:32;;;;;;;10.72;8.68;;;16.90;99.90;;;;;;1951469;73;21102;-89
2023/10/19 02:43:24;;;;;;;9.83;8.28;;;16.90;99.90;;;;;;1951560;73;21192;-89
2023/10/19 02:46:17;;;;;;;11.53;8.45;;;16.90;99.90;;;;;;1951503;73;21098;-88
2023/10/19 02:49:11;;;;;;;11.18;8.50;;;16.90;99.90;;;;;;1951266;73;21601;-88
2023/10/19 02:52:03;;;;;;;11.22;8.45;;;17.00;99.90;;;;;;1951508;73;21090;-89
2023/10/19 02:54:57;;;;;;;11.65;8.65;;;17.00;99.90;;;;;;1951152;73;21207;-88
2023/10/19 02:57:50;;;;;;;11.50;9.38;;;17.00;99.90;;;;;;1951591;73;21098;-88
2023/10/19 03:00:42;;;;;;;11.85;9.20;;;16.90;99.90;;;;;;1951474;73;21128;-88
2023/10/19 03:03:33;;;;;;;12.00;8.73;;;16.90;99.90;;;;;;1951446;73;21144;-88
2023/10/19 03:06:26;;;;;;;11.40;9.03;;;16.90;99.90;;;;;;1951604;73;21094;-88
2023/10/19 03:09:22;;;;;;;12.50;8.00;;;16.90;99.90;;;;;;1922751;73;21104;-88
2023/10/19 03:12:14;;;;;;;12.93;8.38;;;16.90;99.90;;;;;;1917795;75;21161;-88
2023/10/19 03:15:06;;;;;;;11.00;7.53;;;16.90;99.90;;;;;;1917825;75;21588;-89
2023/10/19 03:17:58;;;;;;;10.35;7.55;;;16.90;99.90;;;;;;1914960;75;21101;-88
2023/10/19 03:20:50;;;;;;;11.00;8.35;;;17.00;99.90;;;;;;1908406;75;21186;-89
2023/10/19 03:23:42;;;;;;;10.72;7.47;;;17.00;99.90;;;;;;1908314;75;21105;-88
2023/10/19 03:26:36;;;;;;;10.60;7.35;;;17.00;99.90;;;;;;1908271;75;21104;-89
2023/10/19 03:29:31;;;;;;;10.88;8.10;;;17.00;99.90;;;;;;1908176;75;21053;-90
2023/10/19 03:32:26;;;;;;;12.55;7.95;;;17.00;99.90;;;;;;1907861;75;21190;-89
2023/10/19 03:35:16;;;;;;;10.10;7.12;;;17.00;99.90;;;;;;1907921;75;21093;-89
2023/10/19 03:38:14;;;;;;;9.53;6.42;;;16.90;99.90;;;;;;1908277;75;21082;-90
2023/10/19 03:41:06;;;;;;;9.70;6.97;;;16.90;99.90;;;;;;1908361;75;21070;-89
2023/10/19 03:43:57;;;;;;;12.35;7.47;;;16.90;99.90;;;;;;1908264;75;21093;-90
2023/10/19 03:46:57;;;;;;;8.70;6.83;;;17.00;99.90;;;;;;1908064;75;21097;-88
2023/10/19 03:49:50;;;;;;;11.63;7.95;;;17.00;99.90;;;;;;1907989;75;21598;-89
2023/10/19 03:52:41;;;;;;;10.08;8.33;;;17.00;99.90;;;;;;1907964;75;21155;-89
2023/10/19 03:55:38;;;;;;;10.15;8.53;;;17.00;99.90;;;;;;1908291;75;21114;-89
2023/10/19 03:58:29;;;;;;;11.03;7.70;;;17.00;99.90;;;;;;1908086;75;21061;-89
2023/10/19 04:01:21;;;;;;;10.45;7.95;;;17.00;99.90;;;;;;1908303;75;21109;-90
2023/10/19 04:04:16;;;;;;;11.50;7.45;;;16.90;99.90;;;;;;1908267;75;21143;-89
2023/10/19 04:07:18;;;;;;;11.40;7.92;;;16.90;99.90;;;;;;1908220;75;21612;-89
2023/10/19 04:10:29;;;;;;;9.63;8.13;;;16.80;99.90;;;;;;1908517;75;21116;-88
2023/10/19 04:13:02;;;;;;;9.90;8.18;;;16.70;99.90;;;;;;1908694;75;21082;-89
2023/10/19 04:15:54;;;;;;;9.93;7.12;;;16.80;99.90;;;;;;1908274;75;21109;-91
2023/10/19 04:18:46;;;;;;;10.93;7.70;;;16.70;99.90;;;;;;1903965;75;21703;-90
2023/10/19 04:21:38;;;;;;;10.68;7.33;;;16.70;99.90;;;;;;1889490;76;21140;-89
2023/10/19 04:24:32;;;;;;;9.33;7.33;;;16.80;99.90;;;;;;1901610;75;21175;-89
2023/10/19 04:27:24;;;;;;;11.50;7.42;;;16.70;99.90;;;;;;1901386;75;21231;-89
2023/10/19 04:30:17;;;;;;;9.35;6.45;;;16.70;99.90;;;;;;1901784;75;21101;-89
2023/10/19 04:33:10;;;;;;;10.15;7.12;;;16.70;99.90;;;;;;1901706;75;21630;-89
2023/10/19 04:36:02;;;;;;;9.78;6.97;;;16.70;99.90;;;;;;1889607;76;21167;-89
2023/10/19 04:38:59;;;;;;;12.40;7.92;;;16.70;99.90;;;;;;1901794;75;21116;-89
2023/10/19 04:41:51;;;;;;;11.63;8.03;;;16.60;99.90;;;;;;1901690;75;21175;-89
2023/10/19 04:44:46;;;;;;;10.38;7.42;;;16.70;99.90;;;;;;1901445;75;21141;-89
2023/10/19 04:47:40;;;;;;;8.75;7.12;;;16.60;99.90;;;;;;1888864;76;21171;-90
2023/10/19 04:50:32;;;;;;;11.22;7.12;;;16.70;99.90;;;;;;1889217;76;21176;-90
2023/10/19 04:53:24;;;;;;;10.05;6.95;;;16.60;99.90;;;;;;1889003;76;21117;-90
2023/10/19 04:56:16;;;;;;;9.55;7.10;;;16.70;99.90;;;;;;1888702;76;21113;-90
2023/10/19 04:59:12;;;;;;;9.88;7.72;;;16.60;99.90;;;;;;1901140;75;21133;-90
2023/10/19 05:02:06;;;;;;;9.60;7.20;;;16.70;99.90;;;;;;1901239;75;21142;-89
2023/10/19 05:04:59;;;;;;;10.90;7.42;;;16.60;99.90;;;;;;1901487;75;21062;-90
2023/10/19 05:07:51;;;;;;;9.48;8.13;;;16.60;99.90;;;;;;1900930;75;21126;-89
2023/10/19 05:10:43;;;;;;;9.98;7.92;;;16.60;99.90;;;;;;1901205;75;21058;-90
2023/10/19 05:13:36;;;;;;;10.53;8.20;;;16.50;99.90;;;;;;1901532;75;21093;-88
2023/10/19 05:16:28;;;;;;;10.30;7.55;;;16.50;99.90;;;;;;1901449;75;21126;-89
2023/10/19 05:19:20;;;;;;;10.40;7.78;;;16.50;99.90;;;;;;1901362;75;21175;-90
2023/10/19 05:22:12;;;;;;;10.63;7.85;;;16.50;99.90;;;;;;1901594;75;21101;-89
2023/10/19 05:25:04;;;;;;;11.63;7.90;;;16.50;99.90;;;;;;1901834;75;21109;-89
2023/10/19 05:27:56;;;;;;;12.60;7.58;;;16.50;99.90;;;;;;1901718;75;21101;-90
2023/10/19 05:30:49;;;;;;;9.23;7.83;;;16.60;99.90;;;;;;1901669;75;21128;-89
2023/10/19 05:33:41;;;;;;;10.60;7.10;;;16.60;99.90;;;;;;1901549;75;21175;-90
2023/10/19 05:36:36;;;;;;;11.08;7.47;;;16.60;99.90;;;;;;1889082;76;21145;-89
2023/10/19 05:39:31;;;;;;;9.43;7.05;;;16.60;99.90;;;;;;1901415;75;21660;-91
2023/10/19 05:42:23;;;;;;;10.32;7.80;;;16.60;99.90;;;;;;1889293;76;21123;-89
2023/10/19 05:45:17;;;;;;;12.07;7.67;;;16.60;99.90;;;;;;1889382;76;21130;-89
2023/10/19 05:48:12;;;;;;;10.60;7.85;;;16.60;99.90;;;;;;1901411;75;21143;-89
2023/10/19 05:51:11;;;;;;;12.23;7.70;;;16.60;99.90;;;;;;1889250;76;21114;-88
2023/10/19 05:54:14;;;;;;;8.48;7.45;;;16.60;99.90;;;;;;1889205;76;21059;-89
2023/10/19 05:57:09;;;;;;;10.18;7.53;;;16.60;99.90;;;;;;1901424;75;21123;-88
2023/10/19 06:00:00;;;;;;;13.00;8.08;;;16.60;99.90;;;;;;1901363;75;21566;-89
2023/10/19 06:02:54;;;;;;;10.30;7.92;;;16.60;99.90;;;;;;1889172;76;21086;-89
2023/10/19 06:05:54;;;;;;;12.88;8.08;;;16.50;99.90;;;;;;1889324;76;21096;-89
2023/10/19 06:08:49;;;;;;;13.58;8.18;;;16.60;99.90;;;;;;1889344;76;21171;-90
2023/10/19 06:11:43;;;;;;;12.60;7.72;;;16.60;99.90;;;;;;1889219;76;21062;-89
2023/10/19 06:14:35;;;;;;;11.83;8.00;;;16.60;99.90;;;;;;1889682;76;21498;-90
2023/10/19 06:17:27;;;;;;;9.63;6.80;;;16.60;99.90;;;;;;1889258;76;21097;-90
2023/10/19 06:20:26;;;;;;;11.08;7.45;;;16.60;99.90;;;;;;1890997;75;21089;-89
2023/10/19 06:23:18;;;;;;;10.70;6.95;;;16.60;99.90;;;;;;1908303;75;21058;-91
2023/10/19 06:26:14;;;;;;;14.43;7.00;;;16.60;99.90;;;;;;1908558;75;21177;-91
2023/10/19 06:29:09;;;;;;;13.62;7.28;;;16.70;99.90;;;;;;1908417;75;21549;-90
2023/10/19 06:32:00;;;;;;;8.23;6.37;;;16.70;99.90;;;;;;1908104;75;21108;-90
2023/10/19 06:34:52;;;;;;;9.35;6.28;;;16.70;99.90;;;;;;1908045;75;21105;-91
2023/10/19 06:37:44;;;;;;;11.40;6.78;;;16.70;99.90;;;;;;1908194;75;21101;-91
2023/10/19 06:40:37;;;;;;;13.62;6.90;;;16.80;99.90;;;;;;1908565;75;21140;-91
2023/10/19 06:43:30;;;;;;;10.82;7.15;;;16.90;99.90;;;;;;1908625;75;21140;-89
2023/10/19 06:46:43;;;;;;;;;;;;;;;;;;;;;
2023/10/19 06:49:31;;;;;;;9.13;6.55;;;16.90;99.90;;;;;;1908488;75;21132;-91
2023/10/19 06:52:23;;;;;;;7.97;5.33;;;17.00;99.90;;;;;;1908760;75;21256;-90
2023/10/19 06:55:19;;;;;;;9.93;5.45;;;17.00;99.90;;;;;;1910898;75;21394;-89
2023/10/19 06:58:12;;;;;;;10.40;6.50;;;17.00;99.90;;;;;;1910998;75;21089;-90
2023/10/19 07:01:08;;;;;;;9.00;5.83;;;17.10;99.90;;;;;;1909677;75;21085;-90
2023/10/19 07:03:59;;;;;;;9.50;5.50;;;17.10;99.90;;;;;;1909449;75;21603;-89
2023/10/19 07:06:51;;;;;;;7.60;5.47;;;17.20;99.90;;;;;;1908526;75;21092;-90
2023/10/19 07:09:43;;;;;;;11.50;5.15;;;17.20;99.90;;;;;;1908456;75;21552;-90
2023/10/19 07:12:36;;;;;;;7.78;5.03;;;17.20;99.90;;;;;;1908248;75;21100;-90
2023/10/19 07:15:29;;;;;;;9.25;5.35;;;17.30;99.90;;;;;;1908460;75;21090;-90
2023/10/19 07:18:22;;;;;;;6.70;4.92;;;17.40;99.90;;;;;;1908142;75;21098;-90
2023/10/19 07:21:13;;;;;;;5.85;4.72;;;17.40;99.90;;;;;;1906977;75;21053;-92
2023/10/19 07:24:09;;;;;;;6.97;4.40;;;17.50;99.90;;;;;;1889577;76;21751;-90
2023/10/19 07:27:04;;;;;;;9.25;4.75;;;17.60;99.90;;;;;;1889514;76;21184;-91
2023/10/19 07:29:57;;;;;;;10.60;5.00;;;17.70;99.90;;;;;;1889514;76;21097;-91
2023/10/19 07:32:54;;;;;;;8.75;4.65;;;17.80;99.90;;;;;;1901666;75;21082;-89
2023/10/19 07:35:46;;;;;;;8.40;4.55;;;17.80;99.90;;;;;;1901918;75;21113;-90
2023/10/19 07:38:42;;;;;;;8.55;4.80;;;17.90;99.90;;;;;;1901848;75;21163;-88
2023/10/19 07:41:36;;;;;;;9.43;4.60;;;17.90;99.90;;;;;;1901427;75;21070;-90
2023/10/19 07:44:30;;;;;;;10.55;5.33;;;17.90;99.90;;;;;;1901875;75;21145;-90
2023/10/19 07:47:21;;;;;;;9.18;4.90;;;17.90;99.90;;;;;;1901694;75;21112;-90
2023/10/19 07:50:16;;;;;;;7.53;4.70;;;18.00;99.90;;;;;;1889383;76;21224;-90
2023/10/19 07:53:09;;;;;;;11.73;5.05;;;17.90;99.90;;;;;;1889288;76;21248;-89
2023/10/19 07:56:01;;;;;;;7.87;5.10;;;17.80;99.90;;;;;;1889507;76;21134;-90
2023/10/19 07:58:53;;;;;;;11.05;5.30;;;17.80;99.90;;;;;;1901590;75;21061;-90
2023/10/19 08:01:45;;;;;;;10.20;4.72;;;17.80;99.90;;;;;;1889693;76;21113;-89
2023/10/19 08:04:39;;;;;;;10.15;4.53;;;17.90;99.90;;;;;;1888949;76;21128;-90
2023/10/19 08:07:31;;;;;;;6.08;4.00;;;17.90;99.90;;;;;;1889271;76;21150;-89
2023/10/19 08:10:22;;;;;;;9.03;4.20;;;18.00;99.90;;;;;;1889127;76;21150;-90
2023/10/19 08:13:14;;;;;;;6.22;3.83;;;18.30;99.90;;;;;;1901660;75;21557;-89
2023/10/19 08:16:07;;;;;;;7.85;4.08;;;18.40;99.90;;;;;;1889449;76;21190;-90
2023/10/19 08:19:00;;;;;;;8.45;3.92;;;18.60;99.90;;;;;;1890805;76;21172;-89
2023/10/19 08:21:51;;;;;;;6.85;3.47;;;18.70;99.90;;;;;;1889674;76;21143;-90
2023/10/19 08:24:45;;;;;;;6.83;4.03;;;18.70;99.90;;;;;;1889413;76;21140;-89
2023/10/19 08:27:37;;;;;;;4.90;4.00;;;19.00;99.90;;;;;;1889503;76;21148;-89
2023/10/19 08:30:29;;;;;;;7.03;3.33;;;19.10;99.90;;;;;;1889503;76;21082;-89
2023/10/19 08:33:22;;;;;;;7.10;4.30;;;19.10;99.90;;;;;;1901604;75;21175;-89
2023/10/19 08:36:20;;;;;;;10.75;3.60;;;19.00;99.90;;;;;;1901562;75;21054;-89
2023/10/19 08:39:13;;;;;;;5.12;2.83;;;18.90;99.90;;;;;;1901601;75;21109;-90
2023/10/19 08:42:05;;;;;;;8.03;3.62;;;18.90;99.90;;;;;;1901423;75;21098;-89
2023/10/19 08:44:59;;;;;;;8.48;3.62;;;18.90;99.90;;;;;;1901402;75;21176;-89
2023/10/19 08:47:56;;;;;;;6.33;3.85;;;19.00;99.90;;;;;;1889145;76;21706;-90
2023/10/19 08:50:48;;;;;;;7.65;4.20;;;19.00;99.90;;;;;;1901425;75;21153;-89
2023/10/19 08:53:41;;;;;;;9.45;3.83;;;19.00;99.90;;;;;;1901512;75;21159;-89
2023/10/19 08:56:33;;;;;;;5.45;3.20;;;19.00;99.90;;;;;;1901482;75;21140;-89
2023/10/19 08:59:25;;;;;;;11.28;3.40;;;18.90;99.90;;;;;;1901673;75;21120;-90
2023/10/19 09:02:17;;;;;;;7.12;4.65;;;19.00;99.90;;;;;;1901544;75;21121;-90
2023/10/19 09:05:19;;;;;;;6.05;2.83;;;18.90;99.90;;;;;;1901803;75;21131;-90
2023/10/19 09:08:06;;;;;;;8.60;3.33;;;18.80;99.90;;;;;;1901856;75;21167;-89
2023/10/19 09:10:58;;;;;;;7.37;3.55;;;18.90;99.90;;;;;;1901702;75;21062;-89
2023/10/19 09:13:51;;;;;;;6.15;4.10;;;19.00;99.90;;;;;;1901835;75;21089;-89
2023/10/19 09:16:57;;;;;;;7.37;4.10;;;19.10;99.90;;;;;;1901733;75;21498;-90
2023/10/19 09:19:53;;;;;;;7.40;3.83;;;19.00;99.90;;;;;;1889097;76;21067;-89
2023/10/19 09:22:46;;;;;;;;;;;18.90;99.90;;;;;;1904563;75;21191;-89
2023/10/19 09:25:39;;;;;;;8.45;3.87;;;19.00;99.90;;;;;;1901642;75;20272;-89
2023/10/19 09:28:33;;;;;;;5.80;4.08;;;19.00;99.90;;;;;;1902033;75;21208;-90
2023/10/19 09:31:27;;;;;;;9.08;3.87;;;19.10;99.90;;;;;;1901681;75;21175;-88
2023/10/19 09:34:18;;;;;;;7.15;3.47;;;19.10;99.90;;;;;;1901560;75;21090;-90
2023/10/19 09:37:11;;;;;;;6.90;3.52;;;19.20;99.90;;;;;;1889280;76;22182;-90
2023/10/19 09:40:03;;;;;;;7.45;3.90;;;19.20;99.90;;;;;;1889443;76;21167;-89
2023/10/19 09:42:57;;;;;;;9.95;4.50;;;19.30;99.90;;;;;;1890900;76;21156;-90
2023/10/19 09:48:45;;;;;;;6.03;3.22;;;19.30;99.90;;;;;;1975858;72;22193;-89
2023/10/19 09:51:38;;;;;;;7.67;3.77;;;19.30;99.90;;;;;;1951255;73;21088;-89
2023/10/19 09:54:34;;;;;;;9.05;3.70;;;19.40;99.90;;;;;;1950926;73;21171;-89
2023/10/19 09:57:29;;;;;;;7.08;3.42;;;19.50;99.90;;;;;;1950612;73;21175;-89
2023/10/19 10:00:24;;;;;;;4.42;3.02;;;19.50;99.90;;;;;;1950685;73;21553;-89
2023/10/19 10:03:44;;;;;;;6.75;3.98;;;19.60;99.90;;;;;;1950490;73;21160;-90
2023/10/19 10:07:05;;;;;;;8.45;6.05;;;19.60;99.90;;;;;;1943515;73;21105;-87
2023/10/19 10:09:59;;;;;;;11.63;3.75;;;19.60;99.90;;;;;;1917533;75;21490;-92
2023/10/19 10:12:50;;;;;;;7.87;3.42;;;19.60;99.90;;;;;;1919923;75;21063;-94
2023/10/19 10:15:43;;;;;;;8.95;4.37;;;19.50;99.90;;;;;;1920354;75;21102;-93
2023/10/19 10:18:36;;;;;;;7.35;3.67;;;19.50;99.90;;;;;;1919290;75;21139;-92
2023/10/19 10:21:29;;;;;;;6.15;3.12;;;19.50;99.90;;;;;;1887631;75;21098;-91
2023/10/19 10:24:23;;;;;;;5.58;2.60;;;19.60;99.90;;;;;;1917532;75;21105;-92
2023/10/19 10:27:20;;;;;;;5.47;2.50;;;19.80;99.90;;;;;;1917434;75;21117;-93
2023/10/19 10:30:15;;;;;;;7.92;3.00;;;20.00;99.90;;;;;;1917489;75;21119;-91
2023/10/19 10:33:16;;;;;;;9.18;3.00;;;20.20;99.90;;;;;;1917657;75;21199;-91
2023/10/19 10:36:11;;;;;;;7.85;3.80;;;20.40;99.90;;;;;;1880378;76;21133;-91
2023/10/19 10:39:14;;;;;;;7.90;3.77;;;20.60;99.90;;;;;;1917232;75;21101;-92
2023/10/19 10:42:04;;;;;;;5.67;2.62;;;20.80;99.90;;;;;;1880572;76;21187;-92
2023/10/19 10:44:56;;;;;;;6.30;3.10;;;21.00;99.90;;;;;;1917127;75;21110;-92
2023/10/19 10:47:50;;;;;;;6.90;3.60;;;21.10;99.90;;;;;;1913566;75;21629;-92
2023/10/19 10:50:44;;;;;;;9.50;3.72;;;21.20;99.90;;;;;;1905067;75;21172;-91
2023/10/19 10:53:37;;;;;;;8.35;4.10;;;21.30;99.90;;;;;;1904851;75;21085;-92
2023/10/19 10:56:32;;;;;;;5.37;2.20;;;21.30;99.90;;;;;;1904919;75;21084;-92
2023/10/19 10:59:25;;;;;;;3.83;1.75;;;21.50;99.90;;;;;;1916748;75;21164;-92
2023/10/19 11:02:21;;;;;;;3.02;2.22;;;21.70;99.90;;;;;;1904253;75;21212;-91
2023/10/19 11:05:18;;;;;;;4.28;1.45;;;21.90;99.90;;;;;;1916636;75;21114;-92
2023/10/19 11:08:13;;;;;;;1.92;1.40;;;22.10;99.90;;;;;;1904535;75;21152;-92
2023/10/19 11:11:11;;;;;;;4.25;2.05;;;22.40;99.90;;;;;;1916951;75;21109;-92
2023/10/19 11:14:12;;;;;;;2.33;1.20;;;22.60;99.90;;;;;;1904444;75;21607;-92
2023/10/19 11:17:15;;;;;;;4.35;1.40;;;22.70;99.90;;;;;;1916754;75;21164;-92
2023/10/19 11:20:13;;;;;;;4.00;1.60;;;22.80;99.90;;;;;;1916963;75;21134;-91
2023/10/19 11:23:06;;;;;;;3.33;1.40;;;23.00;99.90;;;;;;1904785;75;21162;-92
2023/10/19 11:26:02;;;;;;;1.98;0.75;;;23.10;99.90;;;;;;1916243;75;21063;-92
2023/10/19 11:29:01;;;;;;;3.00;1.20;;;23.30;99.90;;;;;;1904300;75;21377;-93
2023/10/19 11:32:02;;;;;;;1.67;0.80;;;23.50;99.90;;;;;;1904365;75;21102;-93
2023/10/19 11:35:01;;;;;;;1.90;0.60;;;23.60;99.90;;;;;;1917163;75;21113;-92
2023/10/19 11:37:55;;;;;;;2.02;0.50;;;23.80;99.90;;;;;;1904654;75;21179;-93
2023/10/19 11:40:46;;;;;;;2.77;0.50;;;23.90;99.90;;;;;;1919185;75;21057;-92
2023/10/19 11:43:38;;;;;;;0.53;0.37;;;24.00;99.90;;;;;;1905665;75;21058;-91
2023/10/19 11:46:30;;;;;;;1.15;0.42;;;24.00;99.90;;;;;;1916738;75;21098;-92
2023/10/19 11:49:23;;;;;;;2.20;0.53;;;24.10;99.90;;;;;;1921635;74;21121;-93
2023/10/19 11:52:16;;;;;;;2.60;0.65;;;24.20;99.90;;;;;;1926463;74;21203;-92
2023/10/19 11:55:09;;;;;;;2.15;0.57;;;24.20;99.90;;;;;;1898232;74;21097;-92
2023/10/19 11:58:01;;;;;;;1.72;0.60;;;24.30;99.90;;;;;;1926337;74;21134;-92
2023/10/19 12:00:54;;;;;;;1.20;0.35;;;24.30;99.90;;;;;;1926431;74;21155;-92
2023/10/19 20:45:53;;;;;;;0.72;0.30;;;22.00;99.90;;;;;;1995153;71;22140;-91
2023/10/19 20:48:45;;;;;;;0.95;0.40;;;21.90;99.90;;;;;;1953154;73;21134;-91
2023/10/19 20:51:36;;;;;;;0.23;0.20;;;22.00;99.90;;;;;;2031983;70;21082;-95
2023/10/19 20:54:28;;;;;;;0.85;0.30;;;22.10;99.90;;;;;;2032019;70;21602;-93
2023/10/19 20:57:20;;;;;;;0.68;0.40;;;22.20;99.90;;;;;;2031864;70;21065;-93
2023/10/19 21:00:15;;;;;;;2.30;0.30;;;22.20;99.90;;;;;;2032027;70;21010;-93
2023/10/19 21:03:07;;;;;;;1.02;0.45;;;22.20;99.90;;;;;;2032029;70;21057;-92
2023/10/19 21:05:58;;;;;;;1.65;0.40;;;22.20;99.90;;;;;;2031860;70;21127;-93
2023/10/19 21:08:50;;;;;;;0.93;0.40;;;22.20;99.90;;;;;;2031777;70;21077;-92
2023/10/19 21:11:41;;;;;;;2.70;0.60;;;22.20;99.90;;;;;;2031753;70;21114;-92
2023/10/19 21:14:32;;;;;;;1.50;0.20;;;22.20;99.90;;;;;;2031847;70;21100;-92
2023/10/19 21:17:24;;;;;;;0.72;0.20;;;22.10;99.90;;;;;;2031658;70;21123;-93
2023/10/19 21:20:17;;;;;;;0.78;0.20;;;22.20;99.90;;;;;;2032095;70;21094;-93
2023/10/19 21:23:09;;;;;;;1.07;0.30;;;22.20;99.90;;;;;;2032112;70;21142;-93
2023/10/19 21:26:01;;;;;;;1.10;0.20;;;22.30;99.90;;;;;;2031773;70;21076;-93
2023/10/19 21:28:52;;;;;;;1.45;0.28;;;22.30;99.90;;;;;;2031958;70;21077;-92
2023/10/19 21:31:44;;;;;;;0.78;0.30;;;22.30;99.90;;;;;;2031977;70;21069;-93
2023/10/19 21:34:36;;;;;;;0.85;0.20;;;22.40;99.90;;;;;;2031876;70;21100;-93
2023/10/19 21:37:27;;;;;;;0.40;0.10;;;22.40;99.90;;;;;;2032058;70;21050;-93
2023/10/19 21:40:19;;;;;;;0.60;0.20;;;22.50;99.90;;;;;;2031874;70;21079;-93
2023/10/19 21:43:11;;;;;;;0.35;0.20;;;22.40;99.90;;;;;;2031712;70;21099;-93
2023/10/19 21:46:04;;;;;;;0.37;0.10;;;22.50;99.90;;;;;;2031852;70;21077;-94
2023/10/19 21:48:56;;;;;;;0.50;0.20;;;22.40;99.90;;;;;;2031893;70;21030;-93
2023/10/19 21:51:47;;;;;;;0.68;0.20;;;22.40;99.90;;;;;;2031932;70;21065;-93
2023/10/19 21:54:38;;;;;;;0.75;0.10;;;22.40;99.90;;;;;;2032217;70;21068;-94
2023/10/19 21:57:30;;;;;;;1.32;0.30;;;22.40;99.90;;;;;;2031305;70;21049;-94
2023/10/19 22:00:26;;;;;;;0.65;0.30;;;22.30;99.90;;;;;;2031313;70;21065;-94
2023/10/19 22:03:18;;;;;;;0.45;0.10;;;22.40;99.90;;;;;;2031155;70;21069;-93
2023/10/19 22:06:09;;;;;;;0.40;0.10;;;22.40;99.90;;;;;;2031116;70;21066;-93
2023/10/19 22:09:01;;;;;;;0.53;0.10;;;22.30;99.90;;;;;;2031318;70;21446;-93
2023/10/19 22:11:52;;;;;;;0.75;0.20;;;22.40;99.90;;;;;;2031142;70;21061;-93
2023/10/19 22:14:44;;;;;;;0.30;0.10;;;22.40;99.90;;;;;;2031259;70;21065;-93
2023/10/19 22:17:35;;;;;;;0.13;0.05;;;22.40;99.90;;;;;;2031541;70;21070;-93
2023/10/19 22:20:27;;;;;;;0.65;0.20;;;22.50;99.90;;;;;;2030844;70;21131;-95
2023/10/19 22:23:19;;;;;;;1.02;0.10;;;22.60;99.90;;;;;;2031345;70;21138;-94
2023/10/19 22:26:11;;;;;;;0.03;0.00;;;22.50;99.90;;;;;;2031127;70;21080;-94
2023/10/19 22:29:03;;;;;;;1.45;1.10;;;22.50;99.90;;;;;;2031171;70;21073;-94
2023/10/19 22:31:55;;;;;;;0.37;0.20;;;22.40;99.90;;;;;;2031009;70;21077;-95
2023/10/19 22:34:46;;;;;;;0.70;0.10;;;22.40;99.90;;;;;;2031195;70;21022;-95
2023/10/19 22:37:39;;;;;;;0.05;0.05;;;22.40;99.90;;;;;;2031221;70;21122;-93
2023/10/19 22:40:31;;;;;;;0.65;0.15;;;22.30;99.90;;;;;;2031463;70;21034;-93
2023/10/19 22:43:22;;;;;;;0.10;0.05;;;22.40;99.90;;;;;;2033237;70;21026;-93
2023/10/19 22:46:14;;;;;;;0.10;0.05;;;22.40;99.90;;;;;;2036038;70;21325;-93
2023/10/19 22:49:11;;;;;;;0.30;0.10;;;22.40;99.90;;;;;;2038510;70;21053;-93
2023/10/19 22:52:07;;;;;;;0.47;0.10;;;22.20;99.90;;;;;;2038484;70;21061;-93
2023/10/19 22:55:01;;;;;;;0.10;0.00;;;22.30;99.90;;;;;;2038802;70;21025;-94
2023/10/19 22:57:54;;;;;;;0.10;0.10;;;22.20;99.90;;;;;;2010709;70;21084;-92
2023/10/19 23:00:46;;;;;;;0.40;0.17;;;22.10;99.90;;;;;;2038366;70;21130;-94
2023/10/19 23:03:43;;;;;;;0.72;0.08;;;22.10;99.90;;;;;;2038366;70;21146;-94
2023/10/19 23:06:37;;;;;;;0.93;0.20;;;22.00;99.90;;;;;;2038397;70;21077;-95
2023/10/19 23:09:34;;;;;;;1.10;0.17;;;22.10;99.90;;;;;;2038397;70;21044;-95
2023/10/19 23:12:27;;;;;;;0.62;0.15;;;22.00;99.90;;;;;;2038377;70;21080;-94
2023/10/19 23:15:36;;;;;;;2.17;0.20;;;22.00;99.90;;;;;;2038454;70;21079;-93
2023/10/19 23:18:26;;;;;;;0.30;0.20;;;22.10;99.90;;;;;;2038519;70;21069;-93
2023/10/19 23:21:22;;;;;;;0.15;0.00;;;22.20;99.90;;;;;;2038232;70;21106;-93
2023/10/19 23:24:16;;;;;;;0.28;0.10;;;22.10;99.90;;;;;;2038764;70;21123;-92
2023/10/19 23:27:11;;;;;;;0.80;0.13;;;21.80;99.90;;;;;;2038584;70;21158;-93
2023/10/19 23:30:08;;;;;;;1.10;0.10;;;21.70;99.90;;;;;;2038131;70;21061;-92
2023/10/19 23:33:03;;;;;;;0.75;0.10;;;21.70;99.90;;;;;;2038229;70;21045;-94
2023/10/19 23:35:59;;;;;;;0.17;0.10;;;21.80;99.90;;;;;;2038540;70;21049;-92
2023/10/19 23:38:52;;;;;;;0.17;0.10;;;21.70;99.90;;;;;;2038149;70;21131;-93
2023/10/19 23:41:45;;;;;;;0.60;0.20;;;21.70;99.90;;;;;;2038424;70;21117;-93
2023/10/19 23:44:39;;;;;;;1.07;0.10;;;21.70;99.90;;;;;;2038374;70;21505;-92